Time;durP1;ratioP1;P1;durP2;ratioP2;P2;SDS_P1;SDS_P2;PMS_P1;PMS_P2;Temp;Humidity;BMP_temperature;BMP_pressure;BME280_temperature;BME280_humidity;BME280_pressure;Samples;Min_cycle;Max_cycle;Signal;HPM_P1;HPM_P2
2022/03/14 00:00:07;;;;;;;0.10;0.10;;;6.30;1.00;226.50;231333.00;;;;4981647;28;20769;-70
2022/03/14 00:02:40;;;;;;;0.10;0.10;;;6.20;1.00;226.50;231333.00;;;;4981716;28;20250;-68
2022/03/14 00:05:10;;;;;;;0.00;0.00;;;6.20;1.00;226.50;231333.00;;;;4980969;28;20578;-68
2022/03/14 00:07:38;;;;;;;0.10;0.10;;;6.20;1.00;226.50;231333.00;;;;4980974;28;20197;-69
2022/03/14 00:10:08;;;;;;;0.10;0.10;;;6.10;1.00;226.50;231333.00;;;;4980900;28;20573;-70
2022/03/14 00:12:37;;;;;;;0.10;0.10;;;6.00;1.00;226.50;231333.00;;;;4982073;28;20300;-69
2022/03/14 00:15:09;;;;;;;0.10;0.10;;;6.00;1.00;226.50;231333.00;;;;4981477;28;20331;-69
2022/03/14 00:17:37;;;;;;;0.10;0.10;;;6.00;1.00;226.50;231333.00;;;;4981382;28;20673;-70
2022/03/14 00:20:08;;;;;;;0.10;0.10;;;5.90;1.00;226.50;231333.00;;;;4980966;28;20216;-70
2022/03/14 00:22:37;;;;;;;0.10;0.10;;;5.90;1.00;226.50;231333.00;;;;4980922;28;20204;-70
2022/03/14 00:25:09;;;;;;;0.10;0.10;;;5.90;1.00;226.50;231333.00;;;;4982680;28;20208;-70
2022/03/14 00:27:38;;;;;;;0.10;0.10;;;5.80;1.00;226.50;231333.00;;;;4982060;28;20204;-70
2022/03/14 00:30:10;;;;;;;0.03;0.03;;;5.80;1.00;226.50;231333.00;;;;4980897;28;20236;-70
2022/03/14 00:32:39;;;;;;;0.10;0.10;;;5.80;1.00;226.50;231333.00;;;;4982068;28;20216;-70
2022/03/14 00:35:09;;;;;;;0.10;0.10;;;5.80;1.00;226.50;231333.00;;;;4981127;28;20614;-70
2022/03/14 00:37:39;;;;;;;0.00;0.00;;;5.80;1.00;226.50;231333.00;;;;4982212;28;20196;-70
2022/03/14 00:40:10;;;;;;;0.10;0.10;;;5.80;1.00;226.50;231333.00;;;;4981077;28;20279;-70
2022/03/14 00:42:41;;;;;;;0.10;0.10;;;5.70;1.00;226.50;231333.00;;;;4980407;28;20189;-69
2022/03/14 00:45:10;;;;;;;0.00;0.00;;;5.60;1.00;226.50;231333.00;;;;4980879;28;20184;-71
2022/03/14 00:47:38;;;;;;;0.10;0.10;;;5.60;1.00;226.50;231333.00;;;;4981280;28;20252;-69
2022/03/14 00:50:07;;;;;;;0.10;0.10;;;5.50;1.00;226.50;231333.00;;;;4980208;28;20228;-70
2022/03/14 00:52:36;;;;;;;0.10;0.10;;;5.50;1.00;226.50;231333.00;;;;4981375;28;20227;-69
2022/03/14 00:55:06;;;;;;;0.10;0.10;;;5.40;1.00;226.50;231333.00;;;;4980646;28;20284;-69
2022/03/14 00:57:35;;;;;;;0.10;0.10;;;5.40;1.00;226.50;231333.00;;;;4980818;28;21006;-70
2022/03/14 01:00:06;;;;;;;0.10;0.10;;;5.40;1.00;226.50;231333.00;;;;4980217;28;20213;-69
2022/03/14 01:02:34;;;;;;;0.10;0.10;;;5.30;1.00;226.50;231333.00;;;;4963706;28;20238;-69
2022/03/14 01:05:02;;;;;;;0.10;0.10;;;5.30;1.00;226.50;231333.00;;;;4979669;28;20729;-70
2022/03/14 01:07:30;;;;;;;0.10;0.10;;;5.20;1.00;226.50;231333.00;;;;4980190;28;20613;-70
2022/03/14 01:09:58;;;;;;;0.10;0.10;;;5.20;1.00;226.50;231333.00;;;;4980276;28;20275;-71
2022/03/14 01:12:26;;;;;;;0.10;0.10;;;5.20;1.00;226.50;231333.00;;;;4981164;28;20225;-70
2022/03/14 01:14:56;;;;;;;0.10;0.10;;;5.20;1.00;226.50;231333.00;;;;4981486;28;20536;-70
2022/03/14 01:17:24;;;;;;;0.10;0.10;;;5.20;1.00;226.50;231333.00;;;;4980611;28;20213;-70
2022/03/14 01:19:51;;;;;;;0.10;0.10;;;5.20;1.00;226.50;231333.00;;;;4981192;28;20261;-70
2022/03/14 01:22:19;;;;;;;0.10;0.10;;;5.20;1.00;226.50;231333.00;;;;4980650;28;20676;-70
2022/03/14 01:24:47;;;;;;;0.10;0.10;;;5.20;1.00;226.50;231333.00;;;;4980565;28;20262;-70
2022/03/14 01:27:15;;;;;;;0.10;0.10;;;5.20;1.00;226.50;231333.00;;;;4981199;28;20686;-71
2022/03/14 01:29:43;;;;;;;0.10;0.10;;;5.10;1.00;226.50;231333.00;;;;4980765;28;20632;-69
2022/03/14 01:32:13;;;;;;;0.10;0.10;;;5.10;1.00;226.50;231333.00;;;;4980362;28;20599;-69
2022/03/14 01:34:41;;;;;;;0.00;0.00;;;5.10;1.00;226.50;231333.00;;;;4980997;28;20288;-68
2022/03/14 01:37:10;;;;;;;0.10;0.10;;;5.10;1.00;226.50;231333.00;;;;4979600;28;20328;-69
2022/03/14 01:39:38;;;;;;;0.10;0.10;;;5.10;1.00;226.50;231333.00;;;;4980634;28;20279;-68
2022/03/14 01:42:08;;;;;;;0.10;0.10;;;5.10;1.00;226.50;231333.00;;;;4981243;28;20197;-69
2022/03/14 01:44:36;;;;;;;0.10;0.10;;;5.10;1.00;226.50;231333.00;;;;4980867;28;20255;-69
2022/03/14 01:47:04;;;;;;;0.10;0.10;;;5.10;1.00;226.50;231333.00;;;;4980588;28;20201;-69
2022/03/14 01:49:34;;;;;;;0.10;0.10;;;5.10;1.00;226.50;231333.00;;;;4980915;28;20227;-69
2022/03/14 01:52:05;;;;;;;0.10;0.10;;;5.10;1.00;226.50;231333.00;;;;4979629;28;20196;-69
2022/03/14 01:54:34;;;;;;;0.10;0.10;;;5.10;1.00;226.50;231333.00;;;;4980552;28;20636;-68
2022/03/14 01:57:03;;;;;;;0.10;0.10;;;5.00;1.00;226.50;231333.00;;;;4979928;28;20200;-68
2022/03/14 01:59:31;;;;;;;0.10;0.10;;;5.10;1.00;226.50;231333.00;;;;4978335;28;20216;-69
2022/03/14 02:02:11;;;;;;;0.10;0.10;;;5.10;1.00;226.50;231333.00;;;;4979073;28;20185;-69
2022/03/14 02:04:41;;;;;;;0.10;0.10;;;5.00;1.00;226.50;231333.00;;;;4980069;28;20193;-68
2022/03/14 02:07:10;;;;;;;0.10;0.10;;;5.00;1.00;226.50;231333.00;;;;4982974;28;20197;-71
2022/03/14 02:09:38;;;;;;;0.10;0.10;;;5.00;1.00;226.50;231333.00;;;;4984140;28;20647;-71
2022/03/14 02:12:09;;;;;;;0.10;0.10;;;5.00;1.00;226.50;231333.00;;;;4984808;28;20240;-69
2022/03/14 02:14:39;;;;;;;0.10;0.10;;;4.90;1.00;226.50;231333.00;;;;4985167;28;20698;-68
2022/03/14 02:17:10;;;;;;;0.10;0.10;;;4.80;1.00;226.50;231333.00;;;;4984190;28;20672;-69
2022/03/14 02:19:39;;;;;;;0.10;0.10;;;4.80;1.00;226.50;231333.00;;;;4984376;28;20221;-69
2022/03/14 02:22:13;;;;;;;0.10;0.10;;;4.80;1.00;226.50;231333.00;;;;4983885;28;20192;-69
2022/03/14 02:24:43;;;;;;;0.10;0.10;;;4.80;1.00;226.50;231333.00;;;;4983698;28;20208;-69
2022/03/14 02:27:13;;;;;;;0.10;0.10;;;4.80;1.00;226.50;231333.00;;;;4982820;28;20243;-69
2022/03/14 02:29:43;;;;;;;0.10;0.10;;;4.80;1.00;226.50;231333.00;;;;4984032;28;20224;-69
2022/03/14 02:32:12;;;;;;;0.10;0.10;;;4.80;1.00;226.50;231333.00;;;;4982859;28;20200;-70
2022/03/14 02:34:40;;;;;;;0.10;0.10;;;4.80;1.00;226.50;231333.00;;;;4983707;28;20705;-69
2022/03/14 02:37:10;;;;;;;0.10;0.10;;;4.80;1.00;226.50;231333.00;;;;4983578;28;20228;-69
2022/03/14 02:39:39;;;;;;;0.10;0.10;;;4.80;1.00;226.50;231333.00;;;;4983958;28;20231;-68
2022/03/14 02:42:09;;;;;;;0.15;0.15;;;4.80;1.00;226.50;231333.00;;;;4983461;28;20189;-69
2022/03/14 02:44:41;;;;;;;0.10;0.10;;;4.70;1.00;226.50;231333.00;;;;4984481;28;20270;-68
2022/03/14 02:47:10;;;;;;;0.10;0.10;;;4.70;1.00;226.50;231333.00;;;;4983532;28;20207;-68
2022/03/14 02:49:38;;;;;;;0.10;0.10;;;4.70;1.00;226.50;231333.00;;;;4983615;28;20212;-68
2022/03/14 02:52:07;;;;;;;0.10;0.10;;;4.60;1.00;226.50;231333.00;;;;4983104;28;20248;-68
2022/03/14 02:54:36;;;;;;;0.10;0.10;;;4.60;1.00;226.50;231333.00;;;;4983579;28;20223;-69
2022/03/14 02:57:05;;;;;;;0.10;0.10;;;4.60;1.00;226.50;231333.00;;;;4982791;28;20249;-68
2022/03/14 02:59:34;;;;;;;0.10;0.10;;;4.50;1.00;226.50;231333.00;;;;4983347;28;20227;-69
2022/03/14 03:02:03;;;;;;;0.10;0.10;;;4.60;1.00;226.50;231333.00;;;;4982515;28;20255;-69
2022/03/14 03:04:32;;;;;;;0.10;0.10;;;4.60;1.00;226.50;231333.00;;;;4983574;28;20673;-69
2022/03/14 03:07:00;;;;;;;0.10;0.10;;;4.60;1.00;226.50;231333.00;;;;4982879;28;20197;-69
2022/03/14 03:09:30;;;;;;;0.10;0.10;;;4.60;1.00;226.50;231333.00;;;;4983079;28;20279;-69
2022/03/14 03:12:01;;;;;;;0.10;0.10;;;4.60;1.00;226.50;231333.00;;;;4982366;28;20196;-70
2022/03/14 03:14:31;;;;;;;0.10;0.10;;;4.60;1.00;226.50;231333.00;;;;4982169;28;20217;-69
2022/03/14 03:17:00;;;;;;;0.20;0.20;;;4.60;1.00;226.50;231333.00;;;;4982001;28;20198;-69
2022/03/14 03:19:29;;;;;;;0.20;0.20;;;4.60;1.00;226.50;231333.00;;;;4982492;28;20282;-69
2022/03/14 03:21:56;;;;;;;0.05;0.05;;;4.60;1.00;226.50;231333.00;;;;4982990;28;20194;-69
2022/03/14 03:24:25;;;;;;;0.10;0.10;;;4.60;1.00;226.50;231333.00;;;;4982691;28;20248;-69
2022/03/14 03:26:53;;;;;;;0.10;0.10;;;4.60;1.00;226.50;231333.00;;;;4983053;28;20556;-72
2022/03/14 03:29:23;;;;;;;0.10;0.10;;;4.60;1.00;226.50;231333.00;;;;4982926;28;20228;-70
2022/03/14 03:31:52;;;;;;;0.10;0.10;;;4.50;1.00;226.50;231333.00;;;;4983380;28;20650;-70
2022/03/14 03:34:20;;;;;;;0.10;0.10;;;4.50;1.00;226.50;231333.00;;;;4982498;28;20623;-70
2022/03/14 03:36:48;;;;;;;0.10;0.10;;;4.60;1.00;226.50;231333.00;;;;4983181;28;20201;-70
2022/03/14 03:39:16;;;;;;;0.10;0.10;;;4.50;1.00;226.50;231333.00;;;;4982599;28;20694;-70
2022/03/14 03:41:43;;;;;;;0.10;0.10;;;4.60;1.00;226.50;231333.00;;;;4982942;28;20603;-70
2022/03/14 03:44:11;;;;;;;0.10;0.10;;;4.60;1.00;226.50;231333.00;;;;4983538;28;20204;-71
2022/03/14 03:46:41;;;;;;;0.10;0.10;;;4.50;1.00;226.50;231333.00;;;;4983161;28;20606;-71
2022/03/14 03:49:09;;;;;;;0.10;0.10;;;4.50;1.00;226.50;231333.00;;;;4982533;28;20255;-72
2022/03/14 03:51:37;;;;;;;0.10;0.10;;;4.40;1.00;226.50;231333.00;;;;4982205;28;20555;-70
2022/03/14 03:54:05;;;;;;;0.10;0.10;;;4.40;1.00;226.50;231333.00;;;;4982163;28;20537;-70
2022/03/14 03:56:34;;;;;;;0.10;0.10;;;4.40;1.00;226.50;231333.00;;;;4982254;28;20194;-72
2022/03/14 03:59:03;;;;;;;0.10;0.10;;;4.30;1.00;226.50;231333.00;;;;4981774;28;20201;-70
2022/03/14 04:01:31;;;;;;;0.10;0.10;;;4.40;1.00;226.50;231333.00;;;;4982133;28;20196;-70
2022/03/14 04:04:01;;;;;;;0.10;0.10;;;4.30;1.00;226.50;231333.00;;;;4983037;28;20213;-69
2022/03/14 04:06:30;;;;;;;0.10;0.10;;;4.30;1.00;226.50;231333.00;;;;4982248;28;20205;-69
2022/03/14 04:09:00;;;;;;;0.10;0.10;;;4.30;1.00;226.50;231333.00;;;;4982501;28;20256;-68
2022/03/14 04:11:28;;;;;;;0.13;0.13;;;4.30;1.00;226.50;231333.00;;;;4982206;28;20291;-68
2022/03/14 04:13:59;;;;;;;0.10;0.10;;;4.30;1.00;226.50;231333.00;;;;4982570;28;20212;-71
2022/03/14 04:16:28;;;;;;;0.10;0.10;;;4.20;1.00;226.50;231333.00;;;;4981599;28;20196;-68
2022/03/14 04:19:00;;;;;;;0.10;0.10;;;4.10;1.00;226.50;231333.00;;;;4981672;28;20280;-69
2022/03/14 04:21:28;;;;;;;0.10;0.10;;;4.20;1.00;226.50;231333.00;;;;4982796;28;20197;-70
2022/03/14 04:23:57;;;;;;;0.10;0.10;;;4.10;1.00;226.50;231333.00;;;;4982782;28;20200;-69
2022/03/14 04:26:25;;;;;;;0.10;0.10;;;4.10;1.00;226.50;231333.00;;;;4981145;28;20212;-68
2022/03/14 04:28:53;;;;;;;0.08;0.08;;;4.10;1.00;226.50;231333.00;;;;4980958;28;20208;-68
2022/03/14 04:31:22;;;;;;;0.10;0.10;;;4.10;1.00;226.50;231333.00;;;;4982274;28;20235;-68
2022/03/14 04:33:52;;;;;;;0.10;0.10;;;4.10;1.00;226.50;231333.00;;;;4982437;28;20651;-70
2022/03/14 04:36:22;;;;;;;0.10;0.10;;;4.00;1.00;226.50;231333.00;;;;4981041;28;20224;-69
2022/03/14 04:38:50;;;;;;;0.10;0.10;;;4.00;1.00;226.50;231333.00;;;;4981630;28;20212;-71
2022/03/14 04:41:18;;;;;;;0.10;0.10;;;4.00;1.00;226.50;231333.00;;;;4983357;28;20224;-68
2022/03/14 04:43:46;;;;;;;0.10;0.10;;;4.00;1.00;226.50;231333.00;;;;4982452;28;20616;-69
2022/03/14 04:46:15;;;;;;;0.10;0.10;;;4.00;1.00;226.50;231333.00;;;;4982707;28;20223;-70
2022/03/14 04:48:43;;;;;;;0.10;0.10;;;3.90;1.00;226.50;231333.00;;;;4981302;28;20224;-70
2022/03/14 04:51:11;;;;;;;0.10;0.10;;;3.80;1.00;226.50;231333.00;;;;4981423;28;20216;-69
2022/03/14 04:53:41;;;;;;;0.10;0.10;;;3.80;1.00;226.50;231333.00;;;;4981658;28;20239;-71
2022/03/14 04:56:09;;;;;;;0.10;0.10;;;3.80;1.00;226.50;231333.00;;;;4981036;28;20220;-71
2022/03/14 04:58:37;;;;;;;0.10;0.10;;;3.80;1.00;226.50;231333.00;;;;4981468;28;20207;-69
2022/03/14 05:01:05;;;;;;;0.10;0.10;;;3.70;1.00;226.50;231333.00;;;;4981408;28;20236;-69
2022/03/14 05:03:35;;;;;;;0.10;0.10;;;3.70;1.00;226.50;231333.00;;;;4980993;28;20216;-69
2022/03/14 05:06:03;;;;;;;0.10;0.10;;;3.70;1.00;226.50;231333.00;;;;4981901;28;20192;-69
2022/03/14 05:08:31;;;;;;;0.10;0.10;;;3.60;1.00;226.50;231333.00;;;;4981874;28;20235;-69
2022/03/14 05:11:01;;;;;;;0.10;0.10;;;3.60;1.00;226.50;231333.00;;;;4981506;28;20217;-70
2022/03/14 05:13:28;;;;;;;0.10;0.10;;;3.60;1.00;226.50;231333.00;;;;4981802;28;20255;-69
2022/03/14 05:15:57;;;;;;;0.10;0.10;;;3.50;1.00;226.50;231333.00;;;;4980904;28;20224;-69
2022/03/14 05:18:25;;;;;;;0.10;0.10;;;3.50;1.00;226.50;231333.00;;;;4980867;28;20682;-70
2022/03/14 05:20:53;;;;;;;0.20;0.20;;;3.50;1.00;226.50;231333.00;;;;4981230;28;20208;-69
2022/03/14 05:23:22;;;;;;;0.10;0.10;;;3.50;1.00;226.50;231333.00;;;;4981939;28;20228;-70
2022/03/14 05:25:50;;;;;;;0.10;0.10;;;3.40;1.00;226.50;231333.00;;;;4980443;28;20748;-72
2022/03/14 05:28:19;;;;;;;0.10;0.10;;;3.40;1.00;226.50;231333.00;;;;4980611;28;20197;-70
2022/03/14 05:30:47;;;;;;;0.10;0.10;;;3.40;1.00;226.50;231333.00;;;;4981125;28;20228;-70
2022/03/14 05:33:15;;;;;;;0.10;0.10;;;3.40;1.00;226.50;231333.00;;;;4980813;28;20300;-69
2022/03/14 05:35:43;;;;;;;0.10;0.10;;;3.40;1.00;226.50;231333.00;;;;4981067;28;20216;-70
2022/03/14 05:38:11;;;;;;;0.10;0.10;;;3.40;1.00;226.50;231333.00;;;;4980325;28;20210;-70
2022/03/14 05:40:39;;;;;;;0.10;0.10;;;3.30;1.00;226.50;231333.00;;;;4983736;28;20577;-70
2022/03/14 05:43:09;;;;;;;0.10;0.10;;;3.30;1.00;226.50;231333.00;;;;4985865;28;20197;-70
2022/03/14 05:45:38;;;;;;;0.10;0.10;;;3.30;1.00;226.50;231333.00;;;;4985202;28;20578;-71
2022/03/14 05:48:06;;;;;;;0.15;0.15;;;3.30;1.00;226.50;231333.00;;;;4984365;28;20208;-70
2022/03/14 05:50:35;;;;;;;0.10;0.10;;;3.30;1.00;226.50;231333.00;;;;4985130;28;20221;-71
2022/03/14 05:53:03;;;;;;;0.20;0.20;;;3.30;1.00;226.50;231333.00;;;;4984742;28;20193;-70
2022/03/14 05:55:31;;;;;;;0.10;0.10;;;3.30;1.00;226.50;231333.00;;;;4984828;28;20285;-70
2022/03/14 05:57:59;;;;;;;0.15;0.15;;;3.30;1.00;226.50;231333.00;;;;4984646;28;20193;-70
2022/03/14 06:00:28;;;;;;;0.10;0.10;;;3.30;1.00;226.50;231333.00;;;;4986026;28;20225;-70
2022/03/14 06:02:57;;;;;;;0.10;0.10;;;3.30;1.00;226.50;231333.00;;;;4987876;28;20204;-70
2022/03/14 06:05:25;;;;;;;0.10;0.10;;;3.40;1.00;226.50;231333.00;;;;4988206;28;20200;-71
2022/03/14 06:07:53;;;;;;;0.20;0.20;;;3.30;1.00;226.50;231333.00;;;;4987309;28;20197;-71
2022/03/14 06:10:22;;;;;;;0.10;0.10;;;3.30;1.00;226.50;231333.00;;;;4989095;28;20275;-70
2022/03/14 06:12:50;;;;;;;0.10;0.10;;;3.40;1.00;226.50;231333.00;;;;4985615;28;20193;-71
2022/03/14 06:15:18;;;;;;;0.20;0.20;;;3.40;1.00;226.50;231333.00;;;;4988169;28;20266;-71
2022/03/14 06:17:46;;;;;;;0.10;0.10;;;3.50;1.00;226.50;231333.00;;;;4986946;28;20200;-71
2022/03/14 06:20:16;;;;;;;0.10;0.10;;;3.50;1.00;226.50;231333.00;;;;4985744;28;20224;-71
2022/03/14 06:22:47;;;;;;;0.10;0.10;;;3.60;1.00;226.50;231333.00;;;;4988868;28;20236;-71
2022/03/14 06:25:17;;;;;;;0.10;0.10;;;3.60;1.00;226.50;231333.00;;;;4990598;28;20196;-71
2022/03/14 06:27:46;;;;;;;0.10;0.10;;;3.70;1.00;226.50;231333.00;;;;4986277;28;20196;-71
2022/03/14 06:30:15;;;;;;;0.10;0.10;;;3.70;1.00;226.50;231333.00;;;;4985890;28;20707;-70
2022/03/14 06:32:46;;;;;;;0.10;0.10;;;3.80;1.00;226.50;231333.00;;;;4985727;28;20189;-71
2022/03/14 06:35:17;;;;;;;0.10;0.10;;;3.90;1.00;226.50;231333.00;;;;4984328;28;20698;-70
2022/03/14 06:37:46;;;;;;;0.10;0.10;;;4.00;1.00;226.50;231333.00;;;;4985299;28;20209;-70
2022/03/14 06:40:14;;;;;;;0.15;0.15;;;4.10;1.00;226.50;231333.00;;;;4985149;28;20225;-71
2022/03/14 06:42:49;;;;;;;0.10;0.10;;;4.20;1.00;226.50;231333.00;;;;4984078;28;20255;-71
2022/03/14 06:45:23;;;;;;;0.10;0.10;;;4.30;1.00;226.50;231333.00;;;;4984689;28;20192;-70
2022/03/14 06:47:52;;;;;;;0.10;0.10;;;4.50;1.00;226.50;231333.00;;;;4984461;28;20756;-71
2022/03/14 06:50:23;;;;;;;0.10;0.10;;;4.60;1.00;226.50;231333.00;;;;4983846;28;20221;-71
2022/03/14 06:52:53;;;;;;;0.10;0.10;;;4.60;1.00;226.50;231333.00;;;;4984423;28;20205;-71
2022/03/14 06:55:21;;;;;;;0.10;0.10;;;4.70;1.00;226.50;231333.00;;;;4984935;28;20695;-71
2022/03/14 06:57:49;;;;;;;0.10;0.10;;;4.70;1.00;226.50;231333.00;;;;4984641;28;20193;-71
2022/03/14 07:00:18;;;;;;;0.10;0.10;;;4.70;1.00;226.50;231333.00;;;;4983421;28;20220;-71
2022/03/14 07:02:46;;;;;;;0.10;0.10;;;4.70;1.00;226.50;231333.00;;;;4984462;28;20296;-71
2022/03/14 07:05:17;;;;;;;0.10;0.10;;;4.70;1.00;226.50;231333.00;;;;4983420;28;20681;-70
2022/03/14 07:07:48;;;;;;;0.10;0.10;;;4.70;1.00;226.50;231333.00;;;;4987529;28;20251;-70
2022/03/14 07:10:17;;;;;;;0.10;0.10;;;4.80;1.00;226.50;231333.00;;;;4988051;28;20279;-71
2022/03/14 07:12:46;;;;;;;0.10;0.10;;;4.90;1.00;226.50;231333.00;;;;4986502;28;20192;-71
2022/03/14 07:15:16;;;;;;;0.10;0.10;;;4.90;1.00;226.50;231333.00;;;;4987287;28;20188;-70
2022/03/14 07:17:46;;;;;;;0.10;0.10;;;5.00;1.00;226.50;231333.00;;;;4987789;28;20220;-72
2022/03/14 07:20:14;;;;;;;0.10;0.10;;;5.00;1.00;226.50;231333.00;;;;4989108;28;20264;-71
2022/03/14 07:22:55;;;;;;;0.10;0.10;;;5.00;1.00;226.50;231333.00;;;;4989994;28;20224;-71
2022/03/14 07:25:25;;;;;;;0.10;0.10;;;5.10;1.00;226.50;231333.00;;;;4989368;28;20208;-72
2022/03/14 07:27:55;;;;;;;0.10;0.10;;;5.20;1.00;226.50;231333.00;;;;4989486;28;20196;-70
2022/03/14 07:30:23;;;;;;;0.10;0.10;;;5.30;1.00;226.50;231333.00;;;;4987889;28;20241;-71
2022/03/14 07:32:52;;;;;;;0.10;0.10;;;5.10;1.00;226.50;231333.00;;;;4984704;28;20192;-73
2022/03/14 07:35:21;;;;;;;0.10;0.10;;;5.10;1.00;226.50;231333.00;;;;4984413;28;20255;-71
2022/03/14 07:37:51;;;;;;;0.10;0.10;;;5.10;1.00;226.50;231333.00;;;;4983136;28;20197;-70
2022/03/14 07:40:20;;;;;;;0.10;0.10;;;5.10;1.00;226.50;231333.00;;;;4983298;28;20217;-70
2022/03/14 07:42:54;;;;;;;0.10;0.10;;;5.10;1.00;226.50;231333.00;;;;4983352;28;20288;-71
2022/03/14 07:45:24;;;;;;;0.10;0.10;;;5.20;1.00;226.50;231333.00;;;;4984109;28;20201;-70
2022/03/14 07:47:54;;;;;;;0.10;0.10;;;5.20;1.00;226.50;231333.00;;;;4983653;28;20196;-70
2022/03/14 07:50:22;;;;;;;0.10;0.10;;;5.20;1.00;226.50;231333.00;;;;4983041;28;20845;-70
2022/03/14 07:52:52;;;;;;;0.10;0.10;;;5.30;1.00;226.50;231333.00;;;;4983227;28;20616;-72
2022/03/14 07:55:23;;;;;;;0.10;0.10;;;5.40;1.00;226.50;231333.00;;;;4983546;28;20834;-72
2022/03/14 07:57:51;;;;;;;0.10;0.10;;;5.50;1.00;226.50;231333.00;;;;4982801;28;20339;-71
2022/03/14 08:00:21;;;;;;;0.17;0.17;;;5.50;1.00;226.50;231333.00;;;;4983275;28;20208;-70
2022/03/14 08:02:50;;;;;;;0.10;0.10;;;5.60;1.00;226.50;231333.00;;;;4981502;28;20207;-71
2022/03/14 08:05:24;;;;;;;0.10;0.10;;;5.60;1.00;226.50;231333.00;;;;4982407;28;20197;-71
2022/03/14 08:07:55;;;;;;;0.10;0.10;;;5.60;1.00;226.50;231333.00;;;;4981895;28;20228;-71
2022/03/14 08:10:25;;;;;;;0.10;0.10;;;5.80;1.00;226.50;231333.00;;;;4965037;28;20945;-70
2022/03/14 08:12:55;;;;;;;0.10;0.10;;;5.70;1.00;226.50;231333.00;;;;4983028;28;20726;-71
2022/03/14 08:15:26;;;;;;;0.10;0.10;;;5.90;1.00;226.50;231333.00;;;;4983916;28;20265;-72
2022/03/14 08:17:56;;;;;;;0.10;0.10;;;5.90;1.00;226.50;231333.00;;;;4983832;28;20589;-70
2022/03/14 08:20:27;;;;;;;0.10;0.10;;;5.90;1.00;226.50;231333.00;;;;4983672;28;20240;-70
2022/03/14 08:22:58;;;;;;;0.10;0.10;;;5.90;1.00;226.50;231333.00;;;;4983347;28;20211;-70
2022/03/14 08:25:31;;;;;;;0.10;0.10;;;6.00;1.00;226.50;231333.00;;;;4983423;28;20658;-72
2022/03/14 08:27:59;;;;;;;0.10;0.10;;;6.10;1.00;226.50;231333.00;;;;4981921;28;20328;-70
2022/03/14 08:30:28;;;;;;;0.10;0.10;;;6.20;1.00;226.50;231333.00;;;;4981736;28;20229;-71
2022/03/14 08:32:58;;;;;;;0.03;0.03;;;6.30;1.00;226.50;231333.00;;;;4982341;28;20197;-71
2022/03/14 08:35:28;;;;;;;0.10;0.10;;;6.50;1.00;226.50;231333.00;;;;4982332;28;20210;-70
2022/03/14 08:37:58;;;;;;;0.10;0.10;;;6.50;1.00;226.50;231333.00;;;;4984181;28;20584;-71
2022/03/14 08:40:28;;;;;;;0.10;0.10;;;6.50;1.00;226.50;231333.00;;;;4982997;28;20226;-72
2022/03/14 08:42:57;;;;;;;0.10;0.10;;;6.60;1.00;226.50;231333.00;;;;4981961;28;20612;-71
2022/03/14 08:45:26;;;;;;;0.10;0.10;;;6.60;1.00;226.50;231333.00;;;;4981098;28;20543;-73
2022/03/14 08:47:55;;;;;;;0.10;0.10;;;6.60;1.00;226.50;231333.00;;;;4982027;28;20201;-71
2022/03/14 08:50:23;;;;;;;0.10;0.10;;;6.70;1.00;226.50;231333.00;;;;4981764;28;20228;-72
2022/03/14 08:52:52;;;;;;;0.10;0.10;;;6.80;1.00;226.50;231333.00;;;;4981109;28;20721;-71
2022/03/14 08:55:22;;;;;;;0.10;0.10;;;6.90;1.00;226.50;231333.00;;;;4980978;28;20200;-71
2022/03/14 08:57:50;;;;;;;0.10;0.10;;;7.00;1.00;226.50;231333.00;;;;4981347;28;20346;-71
2022/03/14 09:00:19;;;;;;;0.10;0.10;;;7.10;1.00;226.50;231333.00;;;;4981265;28;20749;-71
2022/03/14 09:02:47;;;;;;;0.10;0.10;;;7.10;1.00;226.50;231333.00;;;;4981530;28;20224;-71
2022/03/14 09:05:15;;;;;;;0.10;0.10;;;7.20;1.00;226.50;231333.00;;;;4981134;28;20670;-71
2022/03/14 09:07:42;;;;;;;0.10;0.10;;;7.30;1.00;226.50;231333.00;;;;4981393;28;20200;-71
2022/03/14 09:10:14;;;;;;;0.10;0.10;;;7.40;1.00;226.50;231333.00;;;;4980694;28;20266;-72
2022/03/14 09:12:50;;;;;;;0.10;0.10;;;7.50;1.00;226.50;231333.00;;;;4987421;28;20208;-72
2022/03/14 09:15:20;;;;;;;0.10;0.10;;;7.60;1.00;226.50;231333.00;;;;4981352;28;20196;-72
2022/03/14 09:17:51;;;;;;;0.00;0.00;;;7.60;1.00;226.50;231333.00;;;;4981482;28;20225;-71
2022/03/14 09:20:21;;;;;;;0.10;0.10;;;7.50;1.00;226.50;231333.00;;;;4979752;28;20220;-72
2022/03/14 09:22:49;;;;;;;0.10;0.10;;;7.50;1.00;226.50;231333.00;;;;4981173;28;20641;-71
2022/03/14 09:25:19;;;;;;;0.10;0.10;;;7.60;1.00;226.50;231333.00;;;;4981580;28;20193;-71
2022/03/14 09:27:50;;;;;;;0.00;0.00;;;7.50;1.00;226.50;231333.00;;;;4980333;28;20224;-71
2022/03/14 09:30:20;;;;;;;0.10;0.10;;;7.50;1.00;226.50;231333.00;;;;4982091;28;20232;-71
2022/03/14 09:32:49;;;;;;;0.10;0.10;;;7.40;1.00;226.50;231333.00;;;;4980656;28;20192;-71
2022/03/14 09:35:17;;;;;;;0.10;0.10;;;7.40;1.00;226.50;231333.00;;;;4980860;28;20255;-71
2022/03/14 09:37:46;;;;;;;0.10;0.10;;;7.40;1.00;226.50;231333.00;;;;4980601;28;20271;-71
2022/03/14 09:40:18;;;;;;;0.10;0.10;;;7.30;1.00;226.50;231333.00;;;;4981190;28;20227;-71
2022/03/14 09:42:51;;;;;;;0.10;0.10;;;7.40;1.00;226.50;231333.00;;;;4981347;28;20872;-71
2022/03/14 09:45:20;;;;;;;0.10;0.10;;;7.30;1.00;226.50;231333.00;;;;4980655;28;20209;-71
2022/03/14 09:47:52;;;;;;;0.10;0.10;;;7.40;1.00;226.50;231333.00;;;;4981300;28;20227;-71
2022/03/14 09:50:32;;;;;;;0.10;0.10;;;7.40;1.00;226.50;231333.00;;;;4981199;28;20959;-72
2022/03/14 09:53:04;;;;;;;0.10;0.10;;;7.50;1.00;226.50;231333.00;;;;4979507;28;20201;-72
2022/03/14 09:55:40;;;;;;;0.10;0.10;;;7.50;1.00;226.50;231333.00;;;;4981573;28;20199;-71
2022/03/14 09:58:10;;;;;;;0.10;0.10;;;7.50;1.00;226.50;231333.00;;;;4981458;28;20251;-71
2022/03/14 10:00:39;;;;;;;0.10;0.10;;;7.40;1.00;226.50;231333.00;;;;4981083;28;20236;-71
2022/03/14 10:03:13;;;;;;;0.10;0.10;;;7.50;1.00;226.50;231333.00;;;;4980683;28;20195;-72
2022/03/14 10:05:44;;;;;;;0.10;0.10;;;7.40;1.00;226.50;231333.00;;;;4982618;28;20276;-71
2022/03/14 10:08:12;;;;;;;0.10;0.10;;;7.40;1.00;226.50;231333.00;;;;4981331;28;20205;-69
2022/03/14 10:10:42;;;;;;;0.10;0.10;;;7.60;1.00;226.50;231333.00;;;;4980321;28;20271;-71
2022/03/14 10:13:33;;;;;;;0.10;0.10;;;7.60;1.00;226.50;231333.00;;;;4981730;28;20235;-72
2022/03/14 10:16:01;;;;;;;0.10;0.10;;;7.70;1.00;226.50;231333.00;;;;4981135;28;20193;-71
2022/03/14 10:18:36;;;;;;;0.10;0.10;;;7.80;1.00;226.50;231333.00;;;;4980749;28;20225;-73
2022/03/14 10:21:06;;;;;;;0.10;0.10;;;7.80;1.00;226.50;231333.00;;;;4981891;28;20217;-70
2022/03/14 10:23:41;;;;;;;0.10;0.10;;;7.80;1.00;226.50;231333.00;;;;4980614;28;20209;-71
2022/03/14 10:26:12;;;;;;;0.10;0.10;;;7.90;1.00;226.50;231333.00;;;;4981003;28;20279;-72
2022/03/14 10:28:41;;;;;;;0.10;0.10;;;8.00;1.00;226.50;231333.00;;;;4984172;28;20201;-70
2022/03/14 10:31:33;;;;;;;0.10;0.10;;;7.90;1.00;226.50;231333.00;;;;4984545;28;20208;-70
2022/03/14 10:34:04;;;;;;;0.10;0.10;;;8.00;1.00;226.50;231333.00;;;;4984775;28;20232;-71
2022/03/14 10:36:45;;;;;;;0.10;0.10;;;8.10;1.00;226.50;231333.00;;;;4984064;28;20197;-70
2022/03/14 10:39:20;;;;;;;0.10;0.10;;;8.00;1.00;226.50;231333.00;;;;4983989;28;20654;-71
2022/03/14 10:42:03;;;;;;;0.10;0.10;;;8.00;1.00;226.50;231333.00;;;;4983096;28;20238;-71
2022/03/14 10:44:54;;;;;;;0.20;0.20;;;8.00;1.60;226.50;231333.00;;;;4985497;28;20195;-70
2022/03/14 10:47:26;;;;;;;0.10;0.10;;;8.00;99.90;226.50;231333.00;;;;4983179;28;20232;-70
2022/03/14 10:49:54;;;;;;;0.10;0.10;;;8.00;99.90;226.50;231333.00;;;;4967069;28;20227;-71
2022/03/14 10:52:24;;;;;;;0.10;0.10;;;8.10;99.90;226.50;231333.00;;;;4983787;28;20220;-72
2022/03/14 10:54:52;;;;;;;0.10;0.10;;;8.10;99.90;226.50;231333.00;;;;4983886;28;20260;-71
2022/03/14 10:57:25;;;;;;;0.10;0.10;;;8.10;99.90;226.50;231333.00;;;;4981584;28;20200;-71
2022/03/14 10:59:58;;;;;;;0.10;0.10;;;8.00;99.90;226.50;231333.00;;;;4983914;28;20288;-70
2022/03/14 11:02:28;;;;;;;0.10;0.10;;;8.00;1.00;226.50;231333.00;;;;4983597;28;20208;-70
2022/03/14 11:05:02;;;;;;;0.10;0.10;;;7.90;1.00;226.50;231333.00;;;;4983375;28;20200;-70